createdAt,value
2023-05-19T00:00:53.578Z,15.20
2023-05-19T00:03:22.408Z,15.10
2023-05-19T00:05:51.633Z,15.10
2023-05-19T00:08:22.716Z,15.10
2023-05-19T00:10:51.160Z,15.10
2023-05-19T00:13:21.316Z,15.00
2023-05-19T00:15:49.904Z,15.00
2023-05-19T00:18:18.476Z,15.00
2023-05-19T00:20:46.614Z,14.90
2023-05-19T00:23:14.674Z,14.90
2023-05-19T00:25:42.663Z,14.90
2023-05-19T00:28:10.782Z,14.90
2023-05-19T00:30:40.253Z,14.90
2023-05-19T00:33:08.428Z,14.90
2023-05-19T00:35:36.558Z,14.80
2023-05-19T00:38:04.658Z,14.80
2023-05-19T00:40:33.517Z,14.80
2023-05-19T00:43:01.849Z,14.80
2023-05-19T00:45:30.409Z,14.70
2023-05-19T00:47:59.861Z,14.70
2023-05-19T00:50:29.073Z,14.70
2023-05-19T00:52:57.886Z,14.70
2023-05-19T00:55:29.608Z,14.60
2023-05-19T00:57:57.943Z,14.60
2023-05-19T01:00:27.700Z,14.60
2023-05-19T01:02:56.189Z,14.60
2023-05-19T01:05:25.775Z,14.50
2023-05-19T01:07:56.429Z,14.50
2023-05-19T01:10:24.645Z,14.50
2023-05-19T01:12:52.796Z,14.50
2023-05-19T01:15:21.211Z,14.50
2023-05-19T01:18:00.112Z,14.40
2023-05-19T01:20:38.519Z,14.40
2023-05-19T01:23:29.119Z,14.40
2023-05-19T01:26:26.007Z,14.30
2023-05-19T01:29:29.327Z,14.30
2023-05-19T01:32:01.301Z,14.30
2023-05-19T01:34:31.230Z,14.30
2023-05-19T01:37:02.354Z,14.30
2023-05-19T01:39:31.374Z,14.20
2023-05-19T01:41:59.859Z,14.20
2023-05-19T01:44:28.042Z,14.20
2023-05-19T01:46:56.640Z,14.10
2023-05-19T01:49:26.123Z,14.10
2023-05-19T01:51:54.421Z,14.10
2023-05-19T01:54:22.578Z,14.10
2023-05-19T01:56:59.184Z,14.10
2023-05-19T01:59:40.542Z,14.10
2023-05-19T02:02:15.547Z,14.00
2023-05-19T02:04:51.850Z,14.00
2023-05-19T02:07:27.833Z,14.00
2023-05-19T02:10:03.970Z,14.00
2023-05-19T02:12:35.671Z,14.00
2023-05-19T02:15:07.337Z,14.00
2023-05-19T02:17:41.703Z,13.90
2023-05-19T02:20:12.165Z,13.90
2023-05-19T02:22:40.465Z,13.90
2023-05-19T02:25:09.593Z,13.90
2023-05-19T02:27:39.212Z,13.90
2023-05-19T02:30:09.310Z,13.90
2023-05-19T02:32:37.585Z,13.90
2023-05-19T02:35:06.579Z,13.90
2023-05-19T02:37:36.012Z,13.80
2023-05-19T02:40:04.549Z,13.80
2023-05-19T02:42:32.541Z,13.80
2023-05-19T02:45:01.539Z,13.80
2023-05-19T02:47:29.623Z,13.70
2023-05-19T02:49:57.725Z,13.70
2023-05-19T02:52:25.724Z,13.70
2023-05-19T02:54:55.219Z,13.70
2023-05-19T02:57:24.137Z,13.70
2023-05-19T02:59:52.658Z,13.70
2023-05-19T03:02:20.832Z,13.60
2023-05-19T03:04:51.254Z,13.60
2023-05-19T03:07:25.463Z,13.60
2023-05-19T03:09:55.265Z,13.60
2023-05-19T03:12:23.332Z,13.50
2023-05-19T03:14:51.716Z,13.50
2023-05-19T03:17:19.867Z,13.50
2023-05-19T03:19:47.938Z,13.40
2023-05-19T03:22:16.102Z,13.40
2023-05-19T03:24:44.187Z,13.40
2023-05-19T03:27:14.107Z,13.40
2023-05-19T03:29:42.170Z,13.40
2023-05-19T03:32:10.196Z,13.40
2023-05-19T03:34:38.183Z,13.30
2023-05-19T03:37:06.453Z,13.30
2023-05-19T03:39:34.411Z,13.30
2023-05-19T03:42:02.582Z,13.30
2023-05-19T03:44:32.137Z,13.30
2023-05-19T03:47:00.275Z,13.30
2023-05-19T03:49:28.340Z,13.20
2023-05-19T03:51:56.524Z,13.20
2023-05-19T03:54:27.865Z,13.20
2023-05-19T03:56:56.085Z,13.20
2023-05-19T03:59:24.923Z,13.10
2023-05-19T04:01:54.393Z,13.10
2023-05-19T04:04:22.860Z,13.10
2023-05-19T04:06:51.004Z,13.10
2023-05-19T04:09:19.445Z,13.00
2023-05-19T04:11:47.691Z,13.00
2023-05-19T04:14:16.034Z,13.00
2023-05-19T04:16:44.485Z,13.00
2023-05-19T04:19:14.011Z,13.00
2023-05-19T04:21:42.316Z,13.00
2023-05-19T04:24:10.443Z,13.00
2023-05-19T04:26:41.854Z,12.90
2023-05-19T04:29:10.782Z,12.90
2023-05-19T04:31:38.886Z,12.90
2023-05-19T04:34:07.888Z,12.90
2023-05-19T04:36:37.791Z,12.90
2023-05-19T04:39:08.169Z,12.90
2023-05-19T04:41:36.459Z,12.90
2023-05-19T04:44:04.856Z,12.90
2023-05-19T04:46:32.831Z,12.90
2023-05-19T04:49:01.423Z,12.90
2023-05-19T04:51:31.498Z,12.90
2023-05-19T04:54:01.575Z,12.90
2023-05-19T04:56:30.164Z,12.90
2023-05-19T04:58:58.294Z,12.90
2023-05-19T05:01:26.954Z,12.90
2023-05-19T05:03:58.788Z,12.90
2023-05-19T05:06:28.632Z,12.90
2023-05-19T05:08:56.837Z,12.90
2023-05-19T05:11:26.813Z,12.90
2023-05-19T05:13:58.326Z,12.90
2023-05-19T05:16:27.612Z,12.90
2023-05-19T05:18:56.290Z,12.90
2023-05-19T05:21:26.528Z,13.00
2023-05-19T05:23:57.296Z,13.00
2023-05-19T05:26:29.263Z,13.00
2023-05-19T05:28:57.698Z,13.00
2023-05-19T05:31:25.813Z,13.00
2023-05-19T05:33:53.916Z,13.00
2023-05-19T05:36:21.952Z,13.00
2023-05-19T05:38:50.118Z,13.00
2023-05-19T05:41:20.220Z,13.00
2023-05-19T05:43:49.552Z,13.10
2023-05-19T05:46:18.408Z,13.10
2023-05-19T05:48:48.827Z,13.10
2023-05-19T05:51:17.765Z,13.10
2023-05-19T05:53:49.482Z,13.20
2023-05-19T05:56:19.529Z,13.20
2023-05-19T05:58:49.500Z,13.30
2023-05-19T06:01:17.921Z,13.30
2023-05-19T06:03:46.045Z,13.30
2023-05-19T06:06:14.819Z,13.30
2023-05-19T06:08:42.835Z,13.40
2023-05-19T06:11:10.985Z,13.40
2023-05-19T06:13:41.253Z,13.40
2023-05-19T06:16:10.800Z,13.50
2023-05-19T06:18:38.899Z,13.50
2023-05-19T06:21:07.086Z,13.50
2023-05-19T06:23:35.360Z,13.60
2023-05-19T06:26:03.417Z,13.60
2023-05-19T06:28:31.649Z,13.60
2023-05-19T06:31:00.340Z,13.60
2023-05-19T06:33:29.834Z,13.70
2023-05-19T06:35:58.391Z,13.70
2023-05-19T06:38:28.920Z,13.80
2023-05-19T06:40:57.025Z,13.80
2023-05-19T06:43:25.763Z,13.80
2023-05-19T06:45:53.908Z,13.80
2023-05-19T06:48:21.881Z,13.90
2023-05-19T06:50:51.746Z,13.90
2023-05-19T06:53:21.280Z,13.90
2023-05-19T06:55:58.873Z,14.00
2023-05-19T06:58:28.156Z,14.00
2023-05-19T07:00:56.360Z,14.10
2023-05-19T07:03:24.472Z,14.10
2023-05-19T07:05:53.924Z,14.20
2023-05-19T07:08:21.960Z,14.20
2023-05-19T07:10:49.945Z,14.20
2023-05-19T07:13:17.933Z,14.30
2023-05-19T07:15:45.998Z,14.30
2023-05-19T07:18:14.115Z,14.40
2023-05-19T07:20:42.382Z,14.40
2023-05-19T07:23:11.840Z,14.40
2023-05-19T07:25:39.923Z,14.50
2023-05-19T07:28:08.016Z,14.50
2023-05-19T07:30:36.213Z,14.50
2023-05-19T07:33:04.286Z,14.60
2023-05-19T07:35:32.428Z,14.60
2023-05-19T07:38:00.409Z,14.60
2023-05-19T07:40:32.359Z,14.70
2023-05-19T07:43:00.546Z,14.70
2023-05-19T07:45:28.522Z,14.70
2023-05-19T07:47:56.582Z,14.80
2023-05-19T07:50:25.526Z,14.90
2023-05-19T07:52:53.978Z,14.90
2023-05-19T07:55:23.205Z,14.90
2023-05-19T07:57:52.702Z,15.00
2023-05-19T08:00:21.217Z,15.00
2023-05-19T08:02:51.341Z,15.10
2023-05-19T08:05:19.681Z,15.00
2023-05-19T08:07:47.780Z,15.10
2023-05-19T08:10:15.829Z,15.10
2023-05-19T08:12:46.192Z,15.10
2023-05-19T08:15:16.522Z,15.20
2023-05-19T08:17:44.765Z,15.20
2023-05-19T08:20:13.384Z,15.20
2023-05-19T08:22:41.476Z,15.30
2023-05-19T08:25:11.733Z,15.30
2023-05-19T08:27:39.863Z,15.30
2023-05-19T08:30:09.380Z,15.40
2023-05-19T08:32:38.992Z,15.40
2023-05-19T08:35:08.014Z,15.50
2023-05-19T08:37:37.164Z,15.50
2023-05-19T08:40:06.016Z,15.50
2023-05-19T08:42:34.530Z,15.50
2023-05-19T08:45:03.580Z,15.50
2023-05-19T08:47:32.997Z,15.60
2023-05-19T08:50:07.461Z,15.70
2023-05-19T08:52:52.458Z,15.70
2023-05-19T08:55:37.800Z,15.70
2023-05-19T08:58:05.968Z,15.80
2023-05-19T09:00:34.887Z,15.90
2023-05-19T09:03:17.664Z,15.90
2023-05-19T09:05:48.030Z,15.90
2023-05-19T09:08:16.083Z,16.00
2023-05-19T09:10:44.107Z,16.10
2023-05-19T09:13:12.192Z,16.10
2023-05-19T09:15:41.607Z,16.10
2023-05-19T09:18:11.098Z,16.20
2023-05-19T09:20:40.836Z,16.20
2023-05-19T09:23:14.937Z,16.20
2023-05-19T09:25:49.318Z,16.20
2023-05-19T09:28:25.312Z,16.30
2023-05-19T09:31:01.132Z,16.30
2023-05-19T09:33:29.788Z,16.40
2023-05-19T09:35:58.391Z,16.40
2023-05-19T09:38:28.390Z,16.50
2023-05-19T09:40:58.332Z,16.50
2023-05-19T09:43:29.038Z,16.50
2023-05-19T09:46:00.412Z,16.60
2023-05-19T09:48:28.714Z,16.70
2023-05-19T09:50:57.232Z,16.70
2023-05-19T09:53:27.483Z,16.80
2023-05-19T09:55:58.658Z,16.90
2023-05-19T09:58:27.961Z,16.90
2023-05-19T10:00:57.500Z,17.10
2023-05-19T10:03:27.344Z,17.10
2023-05-19T10:05:55.757Z,17.20
2023-05-19T10:08:26.588Z,17.20
2023-05-19T10:10:57.033Z,17.20
2023-05-19T10:13:25.341Z,17.30
2023-05-19T10:15:58.669Z,17.40
2023-05-19T10:18:29.331Z,17.30
2023-05-19T10:20:58.648Z,17.30
2023-05-19T10:23:27.106Z,17.40
2023-05-19T10:25:59.108Z,17.40
2023-05-19T10:28:35.794Z,17.50
2023-05-19T10:31:09.545Z,17.60
2023-05-19T10:33:48.449Z,17.60
2023-05-19T10:36:36.463Z,17.60
2023-05-19T10:39:08.579Z,17.60
2023-05-19T10:41:47.391Z,17.70
2023-05-19T10:44:21.322Z,17.70
2023-05-19T10:46:49.503Z,17.80
2023-05-19T10:49:22.803Z,17.90
2023-05-19T10:51:52.717Z,17.90
2023-05-19T10:54:40.908Z,18.00
2023-05-19T10:57:15.185Z,18.10
2023-05-19T10:59:44.661Z,18.10
2023-05-19T11:02:39.940Z,18.20
2023-05-19T11:05:14.277Z,18.20
2023-05-19T11:07:55.498Z,18.20
2023-05-19T11:10:24.851Z,18.20
2023-05-19T11:12:54.296Z,18.30
2023-05-19T11:15:27.458Z,18.20
2023-05-19T11:17:56.441Z,18.30
2023-05-19T11:20:27.005Z,18.30
2023-05-19T11:23:08.575Z,18.30
2023-05-19T11:25:43.981Z,18.40
2023-05-19T11:28:14.638Z,18.40
2023-05-19T11:30:43.930Z,18.40
2023-05-19T11:33:13.396Z,18.40
2023-05-19T11:35:42.180Z,18.40
2023-05-19T11:38:10.515Z,18.50
2023-05-19T11:40:43.350Z,18.50
2023-05-19T11:43:11.563Z,18.50
2023-05-19T11:45:40.993Z,18.60
2023-05-19T11:48:12.600Z,18.60
2023-05-19T11:50:44.248Z,18.60
2023-05-19T11:53:16.346Z,18.60
2023-05-19T11:55:46.395Z,18.70
2023-05-19T11:58:14.964Z,18.70
2023-05-19T12:00:48.110Z,18.70
2023-05-19T12:03:17.422Z,18.70
2023-05-19T12:05:47.701Z,18.70
2023-05-19T12:08:17.831Z,18.70
2023-05-19T12:10:50.040Z,18.70
2023-05-19T12:13:18.293Z,18.80
2023-05-19T12:15:47.788Z,18.80
2023-05-19T12:18:16.689Z,18.80
2023-05-19T12:20:44.883Z,18.80
2023-05-19T12:23:13.462Z,18.80
2023-05-19T12:25:41.771Z,18.80
2023-05-19T12:28:09.810Z,18.90
2023-05-19T12:30:38.197Z,19.00
2023-05-19T12:33:09.702Z,19.00
2023-05-19T12:35:38.877Z,19.20
2023-05-19T12:38:08.192Z,19.20
2023-05-19T12:40:37.532Z,19.30
2023-05-19T12:43:07.064Z,19.50
2023-05-19T12:45:36.040Z,19.60
2023-05-19T12:48:06.518Z,19.70
2023-05-19T12:50:38.367Z,19.70
2023-05-19T12:53:09.989Z,19.80
2023-05-19T12:55:43.150Z,19.90
2023-05-19T12:58:11.946Z,20.00
2023-05-19T13:00:45.060Z,20.00
2023-05-19T13:03:17.448Z,20.00
2023-05-19T13:05:48.393Z,20.00
2023-05-19T13:08:18.127Z,20.10
2023-05-19T13:10:47.317Z,20.20
2023-05-19T13:13:15.617Z,20.30
2023-05-19T13:15:45.441Z,20.40
2023-05-19T13:18:14.507Z,20.50
2023-05-19T13:20:44.597Z,20.50
2023-05-19T13:23:15.073Z,20.50
2023-05-19T13:25:43.796Z,20.50
2023-05-19T13:28:12.086Z,20.50
2023-05-19T13:30:41.689Z,20.60
2023-05-19T13:33:09.917Z,20.60
2023-05-19T13:35:38.819Z,20.70
2023-05-19T13:38:07.222Z,20.80
2023-05-19T13:40:36.912Z,20.90
2023-05-19T13:43:05.908Z,21.00
2023-05-19T13:45:34.115Z,21.10
2023-05-19T13:48:02.742Z,21.20
2023-05-19T13:50:31.287Z,21.30
2023-05-19T13:52:59.563Z,21.50
2023-05-19T13:55:28.300Z,21.60
2023-05-19T13:57:57.778Z,21.70
2023-05-19T14:00:28.198Z,21.80
2023-05-19T14:02:56.558Z,21.90
2023-05-19T14:05:24.653Z,22.10
2023-05-19T14:07:52.960Z,22.10
2023-05-19T14:10:21.025Z,22.20
2023-05-19T14:13:14.512Z,22.30
2023-05-19T14:15:38.544Z,22.30
2023-05-19T14:18:07.099Z,22.40
2023-05-19T14:20:36.051Z,22.40
2023-05-19T14:23:04.338Z,22.50
2023-05-19T14:25:32.373Z,22.50
2023-05-19T14:28:00.450Z,22.60
2023-05-19T14:30:28.957Z,22.50
2023-05-19T14:32:58.486Z,22.50
2023-05-19T14:35:27.248Z,22.50
2023-05-19T14:37:55.551Z,22.40
2023-05-19T14:40:23.569Z,22.40
2023-05-19T14:42:51.561Z,22.50
2023-05-19T14:45:19.726Z,22.50
2023-05-19T14:47:48.051Z,22.50
2023-05-19T14:50:17.670Z,22.60
2023-05-19T14:52:45.688Z,22.70
2023-05-19T14:55:13.690Z,22.70
2023-05-19T14:57:41.716Z,22.80
2023-05-19T15:00:10.888Z,22.80
2023-05-19T15:02:39.283Z,22.90
2023-05-19T15:05:07.753Z,23.00
2023-05-19T15:07:37.200Z,23.00
2023-05-19T15:10:05.885Z,23.10
2023-05-19T15:12:33.913Z,23.20
2023-05-19T15:15:02.094Z,23.30
2023-05-19T15:17:30.308Z,23.30
2023-05-19T15:19:58.358Z,23.50
2023-05-19T15:22:26.467Z,23.60
2023-05-19T15:24:55.989Z,23.70
2023-05-19T15:27:24.078Z,23.70
2023-05-19T15:29:52.162Z,23.80
2023-05-19T15:32:20.241Z,23.80
2023-05-19T15:34:48.286Z,23.80
2023-05-19T15:37:16.777Z,23.80
2023-05-19T15:39:44.776Z,23.80
2023-05-19T15:42:14.186Z,23.80
2023-05-19T15:44:42.258Z,23.90
2023-05-19T15:47:10.523Z,23.90
2023-05-19T15:49:38.542Z,24.00
2023-05-19T15:52:07.120Z,24.10
2023-05-19T15:54:35.099Z,24.20
2023-05-19T15:57:03.084Z,24.30
2023-05-19T15:59:32.422Z,24.30
2023-05-19T16:02:00.688Z,24.30
2023-05-19T16:04:29.013Z,24.30
2023-05-19T16:06:57.407Z,24.40
2023-05-19T16:09:25.417Z,24.40
2023-05-19T16:11:53.487Z,24.50
2023-05-19T16:14:21.530Z,24.50
2023-05-19T16:16:51.526Z,24.50
2023-05-19T16:19:19.607Z,24.60
2023-05-19T16:21:47.735Z,24.70
2023-05-19T16:24:15.907Z,24.80
2023-05-19T16:26:44.043Z,24.90
2023-05-19T16:29:12.040Z,25.00
2023-05-19T16:31:40.104Z,25.10
2023-05-19T16:34:09.570Z,25.20
2023-05-19T16:36:37.659Z,25.20
2023-05-19T16:39:05.754Z,25.30
2023-05-19T16:41:33.754Z,25.40
2023-05-19T16:44:02.222Z,25.40
2023-05-19T16:46:31.423Z,25.50
2023-05-19T16:48:59.705Z,25.50
2023-05-19T16:51:29.037Z,25.50
2023-05-19T16:53:57.024Z,25.50
2023-05-19T16:56:25.273Z,25.40
2023-05-19T16:58:54.639Z,25.30
2023-05-19T17:01:23.164Z,25.20
2023-05-19T17:03:51.560Z,25.20
2023-05-19T17:06:19.646Z,25.20
2023-05-19T17:08:48.977Z,25.10
2023-05-19T17:11:16.993Z,25.10
2023-05-19T17:13:46.388Z,25.00
2023-05-19T17:16:14.525Z,25.10
2023-05-19T17:18:43.761Z,25.00
2023-05-19T17:21:12.027Z,25.00
2023-05-19T17:23:40.032Z,24.90
2023-05-19T17:26:09.371Z,24.70
2023-05-19T17:28:37.378Z,24.50
2023-05-19T17:31:11.610Z,24.30
2023-05-19T17:33:39.831Z,24.10
2023-05-19T17:36:09.063Z,23.90
2023-05-19T17:38:40.201Z,23.70
2023-05-19T17:41:10.810Z,23.50
2023-05-19T17:43:39.669Z,23.30
2023-05-19T17:46:08.249Z,23.10
2023-05-19T17:48:37.189Z,22.80
2023-05-19T17:51:07.102Z,22.70
2023-05-19T17:53:36.667Z,22.50
2023-05-19T17:56:07.331Z,22.40
2023-05-19T17:58:37.631Z,22.30
2023-05-19T18:01:06.133Z,22.20
2023-05-19T18:03:34.916Z,22.10
2023-05-19T18:06:03.267Z,22.00
2023-05-19T18:08:33.302Z,21.90
2023-05-19T18:11:01.840Z,21.80
2023-05-19T18:13:29.882Z,21.70
2023-05-19T18:15:59.776Z,21.60
2023-05-19T18:18:28.104Z,21.50
2023-05-19T18:20:56.692Z,21.40
2023-05-19T18:23:24.726Z,21.30
2023-05-19T18:25:54.066Z,21.20
2023-05-19T18:28:22.403Z,21.10
2023-05-19T18:31:21.141Z,21.00
2023-05-19T18:33:52.952Z,20.90
2023-05-19T18:36:21.227Z,20.80
2023-05-19T18:38:49.658Z,20.70
2023-05-19T18:41:20.124Z,20.70
2023-05-19T18:43:49.118Z,20.60
2023-05-19T18:46:20.570Z,20.60
2023-05-19T18:48:49.874Z,20.50
2023-05-19T18:51:20.425Z,20.50
2023-05-19T18:53:51.821Z,20.40
2023-05-19T18:56:25.491Z,20.30
2023-05-19T18:58:53.812Z,20.30
2023-05-19T19:01:24.561Z,20.30
2023-05-19T19:03:52.683Z,20.20
2023-05-19T19:06:23.080Z,20.20
2023-05-19T19:08:51.679Z,20.00
2023-05-19T19:11:19.832Z,20.00
2023-05-19T19:13:51.542Z,19.90
2023-05-19T19:16:20.064Z,19.80
2023-05-19T19:18:49.616Z,19.80
2023-05-19T19:21:22.803Z,19.70
2023-05-19T19:23:51.222Z,19.60
2023-05-19T19:26:21.342Z,19.60
2023-05-19T19:28:51.081Z,19.60
2023-05-19T19:31:19.785Z,19.50
2023-05-19T19:33:52.381Z,19.50
2023-05-19T19:36:20.501Z,19.50
2023-05-19T19:38:51.515Z,19.40
2023-05-19T19:41:21.606Z,19.40
2023-05-19T19:43:51.154Z,19.40
2023-05-19T19:46:19.945Z,19.30
2023-05-19T19:48:49.557Z,19.30
2023-05-19T19:51:20.684Z,19.20
2023-05-19T19:53:48.890Z,19.30
2023-05-19T19:56:20.317Z,19.20
2023-05-19T19:58:48.956Z,19.10
2023-05-19T20:01:20.457Z,19.20
2023-05-19T20:03:50.552Z,19.10
2023-05-19T20:06:22.724Z,19.10
2023-05-19T20:08:51.728Z,19.10
2023-05-19T20:11:23.764Z,19.10
2023-05-19T20:13:52.456Z,19.00
2023-05-19T20:16:20.881Z,19.00
2023-05-19T20:18:50.581Z,19.00
2023-05-19T20:21:18.844Z,18.90
2023-05-19T20:23:46.988Z,18.90
2023-05-19T20:26:15.156Z,18.80
2023-05-19T20:28:43.335Z,18.80
2023-05-19T20:31:11.733Z,18.80
2023-05-19T20:33:39.816Z,18.80
2023-05-19T20:36:11.057Z,18.70
2023-05-19T20:38:39.496Z,18.70
2023-05-19T20:41:08.012Z,18.70
2023-05-19T20:43:36.058Z,18.70
2023-05-19T20:46:05.501Z,18.60
2023-05-19T20:48:33.620Z,18.60
2023-05-19T20:51:01.672Z,18.60
2023-05-19T20:53:31.098Z,18.50
2023-05-19T20:55:59.707Z,18.60
2023-05-19T20:58:30.340Z,18.60
2023-05-19T21:00:59.109Z,18.50
2023-05-19T21:03:28.488Z,18.50
2023-05-19T21:05:56.965Z,18.50
2023-05-19T21:08:25.686Z,18.40
2023-05-19T21:10:55.753Z,18.40
2023-05-19T21:13:23.800Z,18.40
2023-05-19T21:15:51.909Z,18.40
2023-05-19T21:18:19.912Z,18.30
2023-05-19T21:20:47.976Z,18.30
2023-05-19T21:23:16.102Z,18.30
2023-05-19T21:25:45.391Z,18.30
2023-05-19T21:28:14.958Z,18.20
2023-05-19T21:30:43.579Z,18.20
2023-05-19T21:33:11.756Z,18.10
2023-05-19T21:35:39.912Z,18.10
2023-05-19T21:38:19.620Z,18.10
2023-05-19T21:40:50.529Z,18.10
2023-05-19T21:43:21.402Z,18.00
2023-05-19T21:45:49.440Z,18.00
2023-05-19T21:48:17.734Z,18.00
2023-05-19T21:50:45.839Z,17.90
2023-05-19T21:53:13.930Z,17.90
2023-05-19T21:55:42.083Z,17.90
2023-05-19T21:58:10.230Z,17.80
2023-05-19T22:00:40.496Z,17.80
2023-05-19T22:03:09.284Z,17.80
2023-05-19T22:05:38.226Z,17.70
2023-05-19T22:08:06.722Z,17.80
2023-05-19T22:10:37.081Z,17.80
2023-05-19T22:13:05.560Z,17.70
2023-05-19T22:15:33.595Z,17.70
2023-05-19T22:18:03.479Z,17.70
2023-05-19T22:20:31.818Z,17.70
2023-05-19T22:23:01.191Z,17.70
2023-05-19T22:25:29.332Z,17.60
2023-05-19T22:27:57.460Z,17.60
2023-05-19T22:30:25.907Z,17.50
2023-05-19T22:32:54.070Z,17.50
2023-05-19T22:35:24.326Z,17.60
2023-05-19T22:37:52.550Z,17.50
2023-05-19T22:40:20.784Z,17.50
2023-05-19T22:42:48.905Z,17.50
2023-05-19T22:45:17.318Z,17.50
2023-05-19T22:47:45.534Z,17.50
2023-05-19T22:50:14.731Z,17.50
2023-05-19T22:52:44.280Z,17.40
2023-05-19T22:55:12.331Z,17.40
2023-05-19T22:57:41.894Z,17.40
2023-05-19T23:00:14.007Z,17.30
2023-05-19T23:02:42.544Z,17.30
2023-05-19T23:05:11.955Z,17.20
2023-05-19T23:07:39.967Z,17.30
2023-05-19T23:10:12.318Z,17.20
2023-05-19T23:12:40.934Z,17.20
2023-05-19T23:15:10.054Z,17.20
2023-05-19T23:17:38.316Z,17.10
2023-05-19T23:20:07.482Z,17.10
2023-05-19T23:22:35.613Z,17.10
2023-05-19T23:25:07.422Z,17.10
2023-05-19T23:27:37.238Z,17.10
2023-05-19T23:30:06.068Z,17.10
2023-05-19T23:32:36.486Z,17.00
2023-05-19T23:35:12.412Z,17.00
2023-05-19T23:37:40.741Z,17.00
2023-05-19T23:40:09.814Z,17.00
2023-05-19T23:42:39.304Z,17.00
2023-05-19T23:45:09.193Z,17.00
2023-05-19T23:47:37.367Z,16.90
2023-05-19T23:50:06.029Z,16.90
2023-05-19T23:52:34.097Z,16.80
2023-05-19T23:55:03.523Z,16.80
2023-05-19T23:57:31.607Z,16.80
